Time;durP1;ratioP1;P1;durP2;ratioP2;P2;SDS_P1;SDS_P2;PMS_P1;PMS_P2;Temp;Humidity;BMP_temperature;BMP_pressure;BME280_temperature;BME280_humidity;BME280_pressure;Samples;Min_cycle;Max_cycle;Signal;HPM_P1;HPM_P2
2024/01/08 00:00:55;;;;;;;14.93;6.00;;;0.30;68.10;;;;;;5073972;28;20041;-74
2024/01/08 00:03:21;;;;;;;13.73;5.97;;;0.30;70.90;;;;;;5073450;28;20494;-74
2024/01/08 00:05:46;;;;;;;16.58;6.38;;;0.30;66.50;;;;;;5074177;28;20031;-76
2024/01/08 00:08:12;;;;;;;13.40;6.03;;;0.40;63.30;;;;;;5074580;28;20021;-75
2024/01/08 00:10:38;;;;;;;11.93;4.95;;;0.30;61.80;;;;;;5081532;28;20017;-74
2024/01/08 00:13:04;;;;;;;9.68;5.00;;;0.30;67.40;;;;;;5087907;28;20024;-74
2024/01/08 00:15:30;;;;;;;11.50;5.28;;;0.30;65.30;;;;;;5084704;28;20095;-73
2024/01/08 00:17:55;;;;;;;10.15;5.18;;;0.30;64.50;;;;;;5075263;28;20052;-74
2024/01/08 00:20:21;;;;;;;11.90;5.60;;;0.30;66.80;;;;;;5073748;28;20107;-74
2024/01/08 00:22:46;;;;;;;12.57;5.70;;;0.30;70.30;;;;;;5073787;28;20028;-74
2024/01/08 00:25:12;;;;;;;11.95;5.35;;;0.30;69.40;;;;;;5074920;28;20028;-75
2024/01/08 00:27:38;;;;;;;11.00;5.20;;;0.30;68.00;;;;;;5075542;28;20059;-73
2024/01/08 00:30:04;;;;;;;13.57;5.50;;;0.30;70.80;;;;;;5074501;28;20100;-74
2024/01/08 00:32:29;;;;;;;11.90;4.80;;;0.30;67.90;;;;;;5073726;28;20483;-75
2024/01/08 00:34:55;;;;;;;13.63;4.72;;;0.30;68.40;;;;;;5073504;28;20055;-73
2024/01/08 00:37:21;;;;;;;12.65;4.93;;;0.30;69.40;;;;;;5073331;28;20024;-74
2024/01/08 00:39:46;;;;;;;8.68;5.22;;;0.30;73.70;;;;;;5073562;28;20383;-75
2024/01/08 00:42:12;;;;;;;10.50;5.38;;;0.30;72.50;;;;;;5073093;28;20112;-73
2024/01/08 00:44:37;;;;;;;11.45;5.18;;;0.30;74.90;;;;;;5073539;28;20029;-74
2024/01/08 00:47:03;;;;;;;10.52;5.38;;;0.30;72.10;;;;;;5073746;28;20025;-74
2024/01/08 00:49:29;;;;;;;10.30;4.95;;;0.30;77.50;;;;;;5073771;28;20032;-74
2024/01/08 00:51:54;;;;;;;9.45;4.97;;;0.30;79.80;;;;;;5072958;28;20028;-74
2024/01/08 00:54:20;;;;;;;13.15;6.00;;;0.30;80.40;;;;;;5074041;28;20036;-74
2024/01/08 00:56:45;;;;;;;14.57;4.80;;;0.20;81.00;;;;;;5072674;28;20031;-74
2024/01/08 00:59:11;;;;;;;12.88;5.00;;;0.30;88.40;;;;;;5072957;28;20027;-74
2024/01/08 01:01:36;;;;;;;12.50;5.40;;;0.30;88.20;;;;;;5069994;28;20032;-74
2024/01/08 01:04:02;;;;;;;16.90;5.10;;;0.30;89.10;;;;;;5071669;28;20064;-74
2024/01/08 01:06:28;;;;;;;14.43;5.85;;;0.30;87.60;;;;;;5072609;28;20025;-75
2024/01/08 01:08:53;;;;;;;15.60;5.22;;;0.30;86.30;;;;;;5072361;28;20028;-74
2024/01/08 01:11:20;;;;;;;14.40;5.05;;;0.40;87.50;;;;;;5073008;28;20592;-74
2024/01/08 01:13:45;;;;;;;11.43;5.25;;;0.30;87.50;;;;;;5073762;28;20107;-74
2024/01/08 01:16:11;;;;;;;9.40;5.07;;;0.30;89.60;;;;;;5072902;28;20112;-73
2024/01/08 01:18:36;;;;;;;10.57;5.15;;;0.30;90.20;;;;;;5080722;28;20029;-74
2024/01/08 01:21:02;;;;;;;8.13;4.53;;;0.40;90.00;;;;;;5080035;28;20028;-74
2024/01/08 01:23:28;;;;;;;11.45;5.72;;;0.40;90.90;;;;;;5080792;28;20040;-75
2024/01/08 01:25:53;;;;;;;13.35;5.15;;;0.40;91.80;;;;;;5084050;28;20028;-74
2024/01/08 01:28:19;;;;;;;10.73;4.82;;;0.40;91.90;;;;;;5073257;28;20032;-74
2024/01/08 01:30:45;;;;;;;13.60;5.93;;;0.40;93.60;;;;;;5072266;28;20025;-74
2024/01/08 01:33:10;;;;;;;12.68;4.97;;;0.40;94.10;;;;;;5071851;28;20024;-74
2024/01/08 01:35:36;;;;;;;11.95;5.25;;;0.40;93.80;;;;;;5073561;28;20033;-75
2024/01/08 01:38:02;;;;;;;12.63;4.88;;;0.50;94.20;;;;;;5073734;28;20399;-73
2024/01/08 01:40:27;;;;;;;12.13;4.97;;;0.40;93.90;;;;;;5072069;28;20428;-74
2024/01/08 01:42:54;;;;;;;11.52;5.05;;;0.40;94.60;;;;;;5070854;28;20032;-75
2024/01/08 01:45:23;;;;;;;12.40;5.85;;;0.40;96.00;;;;;;5072564;28;20024;-73
2024/01/08 01:47:54;;;;;;;11.65;5.30;;;0.40;97.50;;;;;;5072612;28;20029;-75
2024/01/08 01:50:21;;;;;;;10.27;4.97;;;0.40;97.70;;;;;;5072470;28;20024;-73
2024/01/08 01:52:47;;;;;;;12.07;5.53;;;0.50;97.70;;;;;;5071986;28;20061;-74
2024/01/08 01:55:13;;;;;;;10.48;5.00;;;0.50;97.80;;;;;;5072152;28;20028;-74
2024/01/08 01:57:41;;;;;;;11.60;4.95;;;0.50;96.70;;;;;;5072870;28;20480;-75
2024/01/08 02:00:08;;;;;;;14.05;6.00;;;0.50;96.70;;;;;;5072615;28;20036;-74
2024/01/08 02:02:34;;;;;;;10.20;4.55;;;0.40;96.50;;;;;;5077991;28;20103;-75
2024/01/08 02:04:59;;;;;;;13.15;5.30;;;0.40;96.70;;;;;;5079834;28;20056;-74
2024/01/08 02:07:25;;;;;;;12.55;4.80;;;0.30;97.30;;;;;;5083927;28;20020;-75
2024/01/08 02:09:51;;;;;;;12.88;4.85;;;0.30;97.90;;;;;;5077894;28;20020;-74
2024/01/08 02:12:17;;;;;;;10.45;4.35;;;0.30;99.00;;;;;;5075037;28;20036;-75
2024/01/08 02:14:44;;;;;;;9.82;4.25;;;0.30;98.10;;;;;;5078795;28;20021;-74
2024/01/08 02:17:09;;;;;;;10.05;4.35;;;0.30;96.50;;;;;;5081932;28;20029;-74
2024/01/08 02:19:35;;;;;;;11.90;4.60;;;0.30;98.00;;;;;;5084793;28;20044;-75
2024/01/08 02:22:01;;;;;;;13.05;4.82;;;0.30;97.40;;;;;;5081956;28;20024;-75
2024/01/08 02:24:28;;;;;;;12.35;4.18;;;0.50;97.30;;;;;;5072313;28;20043;-74
2024/01/08 02:26:56;;;;;;;11.63;4.30;;;0.30;97.60;;;;;;5070844;28;20025;-72
2024/01/08 02:29:22;;;;;;;10.65;3.83;;;0.40;95.90;;;;;;5071554;28;20020;-74
2024/01/08 02:31:48;;;;;;;11.57;4.47;;;0.40;94.50;;;;;;5076197;28;20133;-74
2024/01/08 02:34:14;;;;;;;12.82;4.25;;;0.40;94.90;;;;;;5076970;28;20471;-74
2024/01/08 02:36:39;;;;;;;9.05;4.10;;;0.40;95.50;;;;;;5074018;28;20044;-74
2024/01/08 02:39:05;;;;;;;12.52;4.50;;;0.40;96.00;;;;;;5073817;28;20024;-74
2024/01/08 02:41:30;;;;;;;10.52;3.90;;;0.40;94.50;;;;;;5073479;28;20032;-75
2024/01/08 02:43:56;;;;;;;13.38;4.35;;;0.40;94.70;;;;;;5071435;28;20480;-73
2024/01/08 02:46:22;;;;;;;14.85;4.57;;;0.40;95.50;;;;;;5072272;28;20020;-73
2024/01/08 02:48:47;;;;;;;10.80;4.03;;;0.40;94.90;;;;;;5071227;28;20029;-73
2024/01/08 02:51:14;;;;;;;11.40;4.25;;;0.40;94.40;;;;;;5070051;28;20027;-73
2024/01/08 02:53:40;;;;;;;11.43;4.45;;;0.40;94.40;;;;;;5070963;28;20086;-72
2024/01/08 02:56:06;;;;;;;14.20;4.07;;;0.50;94.00;;;;;;5071550;28;20028;-73
2024/01/08 02:58:31;;;;;;;14.43;3.95;;;0.50;93.60;;;;;;5072553;28;20097;-75
2024/01/08 03:00:59;;;;;;;10.63;4.22;;;0.40;92.60;;;;;;5075029;28;20029;-74
2024/01/08 03:03:25;;;;;;;10.82;3.75;;;0.40;93.20;;;;;;5090016;28;20008;-74
2024/01/08 03:05:50;;;;;;;8.38;3.72;;;0.40;93.20;;;;;;5085501;28;20388;-73
2024/01/08 03:08:16;;;;;;;10.63;4.38;;;0.40;93.10;;;;;;5088005;28;20036;-73
2024/01/08 03:10:42;;;;;;;10.35;3.53;;;0.30;94.00;;;;;;5091411;28;20032;-74
2024/01/08 03:13:07;;;;;;;10.65;4.07;;;0.40;93.00;;;;;;5070590;28;20480;-75
2024/01/08 03:15:33;;;;;;;15.05;3.88;;;0.40;93.50;;;;;;5071457;28;20653;-75
2024/01/08 03:17:59;;;;;;;16.75;4.07;;;0.40;92.60;;;;;;5071511;28;20547;-73
2024/01/08 03:20:24;;;;;;;11.05;4.10;;;0.40;92.90;;;;;;5072147;28;20073;-74
2024/01/08 03:22:52;;;;;;;9.48;3.97;;;0.40;94.30;;;;;;5071396;28;20024;-73
2024/01/08 03:25:18;;;;;;;12.82;4.32;;;0.40;93.90;;;;;;5070939;28;20086;-73
2024/01/08 03:27:43;;;;;;;9.82;3.58;;;0.40;94.20;;;;;;5071102;28;20021;-74
2024/01/08 03:30:10;;;;;;;11.27;4.68;;;0.40;95.20;;;;;;5072617;28;20530;-74
2024/01/08 03:32:36;;;;;;;12.90;4.32;;;0.40;95.30;;;;;;5073505;28;20052;-75
2024/01/08 03:35:01;;;;;;;13.23;5.38;;;0.40;96.40;;;;;;5076717;28;20047;-75
2024/01/08 03:37:27;;;;;;;15.68;4.65;;;0.40;97.70;;;;;;5092871;28;20548;-75
2024/01/08 03:39:53;;;;;;;14.07;4.45;;;0.50;96.20;;;;;;5094650;28;20373;-75
2024/01/08 03:42:18;;;;;;;15.20;4.53;;;0.50;96.80;;;;;;5094235;28;20032;-75
2024/01/08 03:44:44;;;;;;;13.13;4.05;;;0.50;96.80;;;;;;5095239;28;20418;-75
2024/01/08 03:47:11;;;;;;;11.60;3.50;;;0.50;97.20;;;;;;5095111;28;20035;-75
2024/01/08 03:49:36;;;;;;;12.43;4.45;;;0.50;95.70;;;;;;5099006;28;20437;-75
2024/01/08 03:52:02;;;;;;;13.40;3.90;;;0.50;95.40;;;;;;5097841;28;20032;-75
2024/01/08 03:54:28;;;;;;;12.65;4.55;;;0.60;95.50;;;;;;5103229;28;20028;-75
2024/01/08 03:56:53;;;;;;;17.15;4.80;;;0.50;95.10;;;;;;5103116;28;20028;-74
2024/01/08 03:59:19;;;;;;;14.02;4.00;;;0.50;96.10;;;;;;5096819;28;20514;-74
2024/01/08 04:01:46;;;;;;;10.32;4.25;;;0.50;95.50;;;;;;5098088;28;20066;-76
2024/01/08 04:04:12;;;;;;;12.95;4.10;;;0.50;95.80;;;;;;5093815;28;20035;-74
2024/01/08 04:06:38;;;;;;;11.10;4.22;;;0.50;95.90;;;;;;5096347;28;20024;-74
2024/01/08 04:09:04;;;;;;;11.15;4.20;;;0.40;96.60;;;;;;5095859;28;20016;-74
2024/01/08 04:11:29;;;;;;;12.98;4.15;;;0.50;96.60;;;;;;5095891;28;20441;-74
2024/01/08 04:13:55;;;;;;;15.30;4.72;;;0.50;96.80;;;;;;5094754;28;20032;-75
2024/01/08 04:16:21;;;;;;;14.15;5.13;;;0.50;96.40;;;;;;5097350;28;20078;-74
2024/01/08 04:18:46;;;;;;;13.15;4.43;;;0.50;97.20;;;;;;5104049;28;20038;-74
2024/01/08 04:21:19;;;;;;;13.55;4.75;;;0.50;97.50;;;;;;5112276;28;20066;-73
2024/01/08 04:23:44;;;;;;;12.55;4.32;;;0.50;97.20;;;;;;5116122;28;20083;-75
2024/01/08 04:26:18;;;;;;;14.35;4.85;;;0.50;97.10;;;;;;5118506;28;20079;-73
2024/01/08 04:28:44;;;;;;;14.77;4.82;;;0.50;96.40;;;;;;5119136;28;20008;-74
2024/01/08 04:31:18;;;;;;;20.80;5.03;;;0.50;97.30;;;;;;5119092;28;20035;-74
2024/01/08 04:33:43;;;;;;;7.90;3.60;;;0.50;98.20;;;;;;5118825;28;20048;-73
2024/01/08 04:36:09;;;;;;;14.88;5.15;;;0.50;98.40;;;;;;5118562;28;20040;-74
2024/01/08 04:38:35;;;;;;;14.88;4.60;;;0.50;97.60;;;;;;5118267;28;20024;-75
2024/01/08 04:41:01;;;;;;;8.27;4.00;;;0.50;97.70;;;;;;5118027;28;20012;-75
2024/01/08 04:43:27;;;;;;;13.00;5.10;;;0.50;98.00;;;;;;5118179;28;20036;-74
2024/01/08 04:45:52;;;;;;;12.75;4.30;;;0.50;98.70;;;;;;5114297;28;20036;-73
2024/01/08 04:48:18;;;;;;;12.93;4.50;;;0.50;99.20;;;;;;5100056;28;20027;-74
2024/01/08 04:50:43;;;;;;;11.38;4.85;;;0.50;99.60;;;;;;5113720;28;20050;-74
2024/01/08 04:53:09;;;;;;;20.05;5.78;;;0.50;98.70;;;;;;5098687;28;20255;-74
2024/01/08 04:55:34;;;;;;;13.15;5.57;;;0.60;98.80;;;;;;5101993;28;20069;-73
2024/01/08 04:58:00;;;;;;;17.35;5.13;;;0.60;98.90;;;;;;5094080;28;20028;-76
2024/01/08 05:00:26;;;;;;;12.98;5.40;;;0.60;97.40;;;;;;5094328;28;20031;-74
2024/01/08 05:02:51;;;;;;;13.95;4.95;;;0.60;97.70;;;;;;5092805;28;20403;-74
2024/01/08 05:05:17;;;;;;;16.88;5.03;;;0.60;98.50;;;;;;5092837;28;20111;-74
2024/01/08 05:07:42;;;;;;;12.48;5.05;;;0.60;97.70;;;;;;5093007;28;20036;-73
2024/01/08 05:10:08;;;;;;;17.65;5.22;;;0.60;97.30;;;;;;5093925;28;20024;-74
2024/01/08 05:12:34;;;;;;;15.55;5.75;;;0.60;97.60;;;;;;5095212;28;20387;-75
2024/01/08 05:15:01;;;;;;;14.15;4.95;;;0.60;97.60;;;;;;5094317;28;20024;-75
2024/01/08 05:17:27;;;;;;;10.07;4.72;;;0.60;98.00;;;;;;5092120;28;20085;-76
2024/01/08 05:19:53;;;;;;;17.48;6.35;;;0.70;98.10;;;;;;5092768;28;20467;-76
2024/01/08 05:22:18;;;;;;;13.23;4.63;;;0.60;97.00;;;;;;5092668;28;20063;-75
2024/01/08 05:24:45;;;;;;;17.27;5.45;;;0.70;97.30;;;;;;5092522;28;20074;-80
2024/01/08 05:27:11;;;;;;;18.83;5.30;;;0.70;97.30;;;;;;5095212;28;20052;-77
2024/01/08 05:29:36;;;;;;;18.48;5.57;;;0.70;96.70;;;;;;5086087;28;20047;-76
2024/01/08 05:32:02;;;;;;;20.42;6.05;;;0.70;96.30;;;;;;5076348;28;20104;-78
2024/01/08 05:34:28;;;;;;;17.02;5.28;;;0.70;96.80;;;;;;5079306;28;20020;-79
2024/01/08 05:36:53;;;;;;;15.50;5.72;;;0.70;96.60;;;;;;5078616;28;20028;-81
2024/01/08 05:39:19;;;;;;;16.80;5.80;;;0.70;96.20;;;;;;5074735;28;20077;-81
2024/01/08 05:41:45;;;;;;;20.75;5.30;;;0.70;95.10;;;;;;5078386;28;20496;-79
2024/01/08 05:44:11;;;;;;;13.15;5.00;;;0.80;95.40;;;;;;5076464;28;20449;-81
2024/01/08 05:46:44;;;;;;;18.50;5.72;;;0.70;94.90;;;;;;5071226;28;20020;-77
2024/01/08 05:49:10;;;;;;;22.88;7.00;;;0.70;96.60;;;;;;5073422;28;20028;-79
2024/01/08 05:51:36;;;;;;;18.17;5.72;;;0.70;96.80;;;;;;5073478;28;20031;-76
2024/01/08 05:54:02;;;;;;;18.50;5.30;;;0.70;96.50;;;;;;5072672;28;20020;-76
2024/01/08 05:56:28;;;;;;;16.05;5.60;;;0.70;95.60;;;;;;5070515;28;20395;-75
2024/01/08 05:58:54;;;;;;;16.98;6.65;;;0.70;94.80;;;;;;5072076;28;20029;-75
2024/01/08 06:01:21;;;;;;;17.10;6.90;;;0.80;95.10;;;;;;5073182;28;20033;-76
2024/01/08 06:03:47;;;;;;;14.48;5.13;;;0.80;94.50;;;;;;5072527;28;20515;-75
2024/01/08 06:06:13;;;;;;;11.35;5.05;;;0.80;93.70;;;;;;5073254;28;20419;-75
2024/01/08 06:08:40;;;;;;;16.75;5.00;;;0.90;93.20;;;;;;5073502;28;20036;-76
2024/01/08 06:11:06;;;;;;;13.10;5.05;;;0.80;92.80;;;;;;5073840;28;20490;-76
2024/01/08 06:13:32;;;;;;;11.00;4.93;;;0.80;93.80;;;;;;5073735;28;20482;-76
2024/01/08 06:15:58;;;;;;;13.07;4.93;;;0.80;92.80;;;;;;5073038;28;20017;-77
2024/01/08 06:18:24;;;;;;;15.13;4.65;;;0.80;90.50;;;;;;5074035;28;20024;-75
2024/01/08 06:20:51;;;;;;;12.30;5.28;;;0.90;89.20;;;;;;5071946;28;20028;-79
2024/01/08 06:23:16;;;;;;;12.77;4.95;;;0.80;87.20;;;;;;5072446;28;20031;-79
2024/01/08 06:25:42;;;;;;;18.38;5.32;;;0.70;84.90;;;;;;5077211;28;20021;-75
2024/01/08 06:28:08;;;;;;;17.50;4.68;;;0.70;85.80;;;;;;5072092;28;20085;-75
2024/01/08 06:30:33;;;;;;;12.20;4.75;;;0.80;88.10;;;;;;5069267;28;20392;-74
2024/01/08 06:32:59;;;;;;;18.73;5.55;;;0.80;82.40;;;;;;5070216;28;20024;-76
2024/01/08 06:35:25;;;;;;;15.30;4.32;;;0.80;80.20;;;;;;5070095;28;20127;-73
2024/01/08 06:37:50;;;;;;;14.15;4.78;;;0.80;74.80;;;;;;5072635;28;20028;-77
2024/01/08 06:40:17;;;;;;;19.08;5.90;;;0.80;71.10;;;;;;5073013;28;20046;-75
2024/01/08 06:42:42;;;;;;;16.00;6.30;;;0.80;69.30;;;;;;5071413;28;20097;-76
2024/01/08 06:45:08;;;;;;;12.07;4.15;;;0.80;59.40;;;;;;5069333;28;20127;-76
2024/01/08 06:47:34;;;;;;;8.63;3.70;;;0.90;43.20;;;;;;5070703;28;20050;-76
2024/01/08 06:50:00;;;;;;;10.20;4.38;;;0.80;30.40;;;;;;5071479;28;20025;-77
2024/01/08 06:52:25;;;;;;;8.38;4.05;;;0.90;20.40;;;;;;5073312;28;20092;-78
2024/01/08 06:54:51;;;;;;;6.43;2.97;;;0.80;3.10;;;;;;5071158;28;20056;-75
2024/01/08 06:57:17;;;;;;;6.68;3.38;;;0.90;1.00;;;;;;5071684;28;20029;-78
2024/01/08 06:59:43;;;;;;;8.05;3.28;;;0.90;1.00;;;;;;5073024;28;20051;-77
2024/01/08 07:02:08;;;;;;;8.75;3.70;;;0.90;1.00;;;;;;5075719;28;20401;-78
2024/01/08 07:04:34;;;;;;;8.73;3.45;;;0.90;1.00;;;;;;5072397;28;20030;-78
2024/01/08 07:07:00;;;;;;;8.25;3.45;;;0.90;1.00;;;;;;5075177;28;20040;-79
2024/01/08 07:09:25;;;;;;;5.05;3.17;;;0.90;1.00;;;;;;5079331;28;20077;-78
2024/01/08 07:11:51;;;;;;;5.43;3.30;;;0.90;1.00;;;;;;5078712;28;20012;-76
2024/01/08 07:14:17;;;;;;;5.47;3.17;;;0.90;1.00;;;;;;5078242;28;20040;-76
2024/01/08 07:16:42;;;;;;;9.18;3.75;;;0.90;1.00;;;;;;5076649;28;20108;-74
2024/01/08 07:19:08;;;;;;;10.20;3.25;;;0.90;1.00;;;;;;5076481;28;20078;-78
2024/01/08 07:21:34;;;;;;;8.18;3.60;;;0.90;1.00;;;;;;5086681;28;20025;-79
2024/01/08 07:24:00;;;;;;;4.63;3.00;;;0.90;1.00;;;;;;5078678;28;20407;-74
2024/01/08 07:26:26;;;;;;;7.97;3.22;;;0.80;1.00;;;;;;5073502;28;20024;-74
2024/01/08 07:28:51;;;;;;;7.85;3.55;;;0.80;1.00;;;;;;5077169;28;20025;-76
2024/01/08 07:31:17;;;;;;;8.00;3.28;;;0.80;1.00;;;;;;5078472;28;20020;-76
2024/01/08 07:33:43;;;;;;;8.77;3.70;;;0.80;1.00;;;;;;5076634;28;20033;-75
2024/01/08 07:36:09;;;;;;;7.47;3.35;;;0.90;1.00;;;;;;5075955;28;20490;-74
2024/01/08 07:38:35;;;;;;;7.28;3.40;;;0.90;1.00;;;;;;5079619;28;20031;-75
2024/01/08 07:41:01;;;;;;;6.50;3.53;;;0.90;1.00;;;;;;5079986;28;20020;-75
2024/01/08 07:43:27;;;;;;;9.32;3.70;;;1.00;1.00;;;;;;5073861;28;20036;-74
2024/01/08 07:45:53;;;;;;;12.77;6.40;;;0.90;1.00;;;;;;5073444;28;20020;-74
2024/01/08 07:48:19;;;;;;;10.77;3.33;;;0.80;1.00;;;;;;5076974;28;20051;-76
2024/01/08 07:50:46;;;;;;;7.90;3.38;;;0.80;1.00;;;;;;5093858;28;20069;-74
2024/01/08 07:53:12;;;;;;;11.30;3.90;;;0.80;1.00;;;;;;5094256;28;20030;-76
2024/01/08 07:55:37;;;;;;;7.80;3.30;;;0.80;1.00;;;;;;5074760;28;20028;-74
2024/01/08 07:58:03;;;;;;;6.50;3.58;;;0.80;1.00;;;;;;5074961;28;20115;-74
2024/01/08 08:00:29;;;;;;;8.18;3.40;;;0.70;1.00;;;;;;5074971;28;20039;-74
2024/01/08 08:02:54;;;;;;;8.60;4.05;;;0.80;1.00;;;;;;5073575;28;20028;-75
2024/01/08 08:05:20;;;;;;;6.47;3.65;;;0.80;1.00;;;;;;5076122;28;20075;-73
2024/01/08 08:07:46;;;;;;;8.68;3.95;;;0.80;1.00;;;;;;5073784;28;20099;-73
2024/01/08 08:10:12;;;;;;;11.30;3.95;;;0.80;1.00;;;;;;5079271;28;20017;-75
2024/01/08 08:12:37;;;;;;;13.20;4.03;;;0.80;1.00;;;;;;5078423;28;20051;-74
2024/01/08 08:15:04;;;;;;;10.40;3.35;;;0.90;1.00;;;;;;5074730;28;20029;-73
2024/01/08 08:17:30;;;;;;;8.40;3.70;;;0.80;1.00;;;;;;5074448;28;20052;-73
2024/01/08 08:19:56;;;;;;;10.75;4.00;;;0.90;1.00;;;;;;5077820;28;20085;-73
2024/01/08 08:22:22;;;;;;;7.28;3.92;;;0.90;1.00;;;;;;5072525;28;20376;-74
2024/01/08 08:24:48;;;;;;;8.95;3.72;;;0.90;1.00;;;;;;5073413;28;20033;-75
2024/01/08 08:27:14;;;;;;;6.88;3.50;;;0.90;1.00;;;;;;5073666;28;20028;-73
2024/01/08 08:29:45;;;;;;;13.50;7.30;;;0.90;1.00;;;;;;5073674;28;20028;-76
2024/01/08 08:32:11;;;;;;;8.98;4.20;;;0.90;1.00;;;;;;5076554;28;20529;-74
2024/01/08 08:34:37;;;;;;;7.75;3.75;;;0.90;1.00;;;;;;5078196;28;20028;-79
2024/01/08 08:37:03;;;;;;;7.53;3.58;;;0.80;1.00;;;;;;5074779;28;20414;-75
2024/01/08 08:39:28;;;;;;;6.97;3.42;;;0.70;1.00;;;;;;5080221;28;20095;-76
2024/01/08 08:41:57;;;;;;;9.80;4.07;;;0.70;1.00;;;;;;5075928;28;20086;-74
2024/01/08 08:44:23;;;;;;;8.60;4.03;;;0.70;1.00;;;;;;5073879;28;20020;-76
2024/01/08 08:46:50;;;;;;;9.75;3.53;;;0.70;1.00;;;;;;5073195;28;20031;-74
2024/01/08 08:49:16;;;;;;;12.00;4.00;;;0.70;1.00;;;;;;5073076;28;20021;-73
2024/01/08 08:51:45;;;;;;;9.32;4.32;;;0.80;1.00;;;;;;5072599;28;20020;-75
2024/01/08 08:54:11;;;;;;;8.60;4.13;;;0.80;1.00;;;;;;5075317;28;20032;-76
2024/01/08 08:56:38;;;;;;;7.40;3.75;;;0.90;1.00;;;;;;5056143;28;20082;-75
2024/01/08 08:59:04;;;;;;;11.85;4.28;;;1.00;1.00;;;;;;5074886;28;20035;-75
2024/01/08 09:01:29;;;;;;;9.57;3.72;;;1.00;1.00;;;;;;5075149;28;20024;-74
2024/01/08 09:03:55;;;;;;;8.68;4.18;;;1.00;1.00;;;;;;5073896;28;20024;-74
2024/01/08 09:06:25;;;;;;;9.75;4.05;;;1.00;1.00;;;;;;5072605;28;20024;-76
2024/01/08 09:08:51;;;;;;;10.40;4.05;;;1.10;1.00;;;;;;5077316;28;20028;-74
2024/01/08 09:11:18;;;;;;;8.73;3.38;;;1.20;1.00;;;;;;5073517;28;20024;-74
2024/01/08 09:13:43;;;;;;;13.13;4.28;;;1.50;1.00;;;;;;5075846;28;20403;-74
2024/01/08 09:16:14;;;;;;;10.05;3.95;;;1.60;1.00;;;;;;5081462;28;20027;-74
2024/01/08 09:18:40;;;;;;;7.68;4.05;;;1.80;1.00;;;;;;5078697;28;20016;-74
2024/01/08 09:21:09;;;;;;;8.13;4.32;;;2.20;1.00;;;;;;5073415;28;20033;-75
2024/01/08 09:23:35;;;;;;;11.00;4.47;;;2.90;99.90;;;;;;5072959;28;20086;-74
2024/01/08 09:26:01;;;;;;;14.20;4.15;;;3.50;99.90;;;;;;5073093;28;20024;-72
2024/01/08 09:28:26;;;;;;;10.48;4.10;;;3.90;99.90;;;;;;5072611;28;20025;-74
2024/01/08 09:30:53;;;;;;;10.07;3.72;;;4.20;1.00;;;;;;5073105;28;20099;-76
2024/01/08 09:33:19;;;;;;;8.80;4.32;;;4.60;1.00;;;;;;5074028;28;20020;-74
2024/01/08 09:35:44;;;;;;;7.15;3.58;;;4.90;99.90;;;;;;5073889;28;20024;-77
2024/01/08 09:38:10;;;;;;;7.72;3.30;;;4.70;1.00;;;;;;5076938;28;20081;-76
2024/01/08 09:40:36;;;;;;;6.18;3.45;;;4.20;99.90;;;;;;5078666;28;20032;-73
2024/01/08 09:43:06;;;;;;;8.40;3.22;;;3.70;1.00;;;;;;5082442;28;20052;-73
2024/01/08 09:45:32;;;;;;;9.60;4.07;;;3.40;1.00;;;;;;5095124;28;20028;-74
2024/01/08 09:47:58;;;;;;;6.47;3.47;;;3.00;1.00;;;;;;5097017;28;20088;-74
2024/01/08 09:50:26;;;;;;;13.88;4.30;;;2.70;1.00;;;;;;5109546;28;20039;-74
2024/01/08 09:52:53;;;;;;;8.73;3.58;;;2.50;99.90;;;;;;5098179;28;20035;-73
2024/01/08 09:55:19;;;;;;;9.05;4.35;;;2.30;1.00;;;;;;5102526;28;20021;-74
2024/01/08 09:57:45;;;;;;;10.20;3.95;;;2.40;99.90;;;;;;5098112;28;20111;-74
2024/01/08 10:00:11;;;;;;;11.60;4.13;;;2.40;91.90;;;;;;5096437;28;20020;-74
2024/01/08 10:02:38;;;;;;;8.05;3.97;;;2.40;99.90;;;;;;5101078;28;20028;-75
2024/01/08 10:05:06;;;;;;;6.78;3.75;;;2.50;99.90;;;;;;5099843;28;20116;-73
2024/01/08 10:07:36;;;;;;;8.80;4.07;;;2.50;99.90;;;;;;5107617;28;20016;-76
2024/01/08 10:10:03;;;;;;;8.38;4.15;;;2.50;21.50;;;;;;5115725;28;20055;-75
2024/01/08 10:12:32;;;;;;;8.63;3.33;;;2.60;77.40;;;;;;5117528;28;20168;-75
2024/01/08 10:14:58;;;;;;;12.27;3.67;;;2.70;1.00;;;;;;5117282;28;20008;-76
2024/01/08 10:17:23;;;;;;;8.65;3.78;;;2.80;1.00;;;;;;5113743;28;20028;-77
2024/01/08 10:19:49;;;;;;;8.48;3.50;;;2.70;1.00;;;;;;5098798;28;20027;-80
2024/01/08 10:22:15;;;;;;;8.45;3.83;;;2.80;1.00;;;;;;5098274;28;20030;-79
2024/01/08 10:24:43;;;;;;;11.10;4.03;;;2.80;94.20;;;;;;5095278;28;20061;-77
2024/01/08 10:27:10;;;;;;;7.65;3.38;;;2.80;1.00;;;;;;5092343;28;20024;-76
2024/01/08 10:29:38;;;;;;;6.22;3.58;;;2.90;93.20;;;;;;5093300;28;20030;-75
2024/01/08 10:32:07;;;;;;;13.77;4.30;;;2.90;1.00;;;;;;5092149;28;20065;-76
2024/01/08 10:34:36;;;;;;;8.02;3.78;;;2.90;1.00;;;;;;5092103;28;20119;-74
2024/01/08 10:37:01;;;;;;;6.75;3.35;;;2.90;1.00;;;;;;5092892;28;20103;-77
2024/01/08 10:39:30;;;;;;;11.52;4.03;;;2.90;1.00;;;;;;5091805;28;20124;-78
2024/01/08 10:41:57;;;;;;;9.13;3.55;;;2.90;1.00;;;;;;5098178;28;20399;-75
2024/01/08 10:44:24;;;;;;;11.55;4.65;;;2.80;28.90;;;;;;5096542;28;20016;-73
2024/01/08 10:47:02;;;;;;;11.27;4.25;;;2.70;99.90;;;;;;5096383;28;20363;-76
2024/01/08 10:49:35;;;;;;;10.88;4.68;;;2.70;99.90;;;;;;5095566;28;20020;-77
2024/01/08 10:52:09;;;;;;;9.93;3.97;;;2.70;99.90;;;;;;5098629;28;20348;-75
2024/01/08 10:54:43;;;;;;;9.15;3.90;;;2.80;99.90;;;;;;5095901;28;20028;-74
2024/01/08 10:57:13;;;;;;;10.43;4.05;;;2.80;99.90;;;;;;5095589;28;20032;-75
2024/01/08 10:59:41;;;;;;;7.97;4.10;;;2.90;99.90;;;;;;5095842;28;20024;-73
2024/01/08 11:02:14;;;;;;;9.23;4.25;;;2.90;99.90;;;;;;5096342;28;20101;-75
2024/01/08 11:04:42;;;;;;;7.45;3.90;;;2.80;99.90;;;;;;5095792;28;20030;-74
2024/01/08 11:07:11;;;;;;;13.23;3.90;;;2.90;99.90;;;;;;5096396;28;20017;-78
2024/01/08 11:09:37;;;;;;;12.90;4.00;;;2.90;99.90;;;;;;5100405;28;20020;-77
2024/01/08 11:12:03;;;;;;;9.13;3.78;;;2.90;99.90;;;;;;5096174;28;20378;-74
2024/01/08 11:14:29;;;;;;;11.15;4.07;;;3.00;99.90;;;;;;5095974;28;20053;-74
2024/01/08 11:16:55;;;;;;;7.22;3.38;;;3.10;99.90;;;;;;5095947;28;20045;-74
2024/01/08 11:19:21;;;;;;;11.07;4.10;;;3.10;1.00;;;;;;5096083;28;20479;-74
2024/01/08 11:21:55;;;;;;;10.65;3.20;;;3.20;1.00;;;;;;5094006;28;20039;-74
2024/01/08 11:24:21;;;;;;;6.70;2.60;;;3.00;1.00;;;;;;5094506;28;20073;-75
2024/01/08 11:26:49;;;;;;;9.73;3.50;;;2.90;1.00;;;;;;5094744;28;20028;-74
2024/01/08 11:29:16;;;;;;;12.55;2.90;;;2.80;99.90;;;;;;5095206;28;20205;-75
2024/01/08 11:31:48;;;;;;;10.65;3.42;;;2.80;25.00;;;;;;5095503;28;20065;-75
2024/01/08 11:34:56;;;;;;;9.57;3.10;;;2.70;40.20;;;;;;5095477;28;20039;-74
2024/01/08 11:37:38;;;;;;;8.70;3.28;;;2.80;59.50;;;;;;5095010;28;20024;-74
2024/01/08 11:40:16;;;;;;;8.73;2.90;;;2.70;94.00;;;;;;5094835;28;20368;-76
2024/01/08 11:42:46;;;;;;;12.40;3.55;;;2.70;99.90;;;;;;5095617;28;20467;-75
2024/01/08 11:45:12;;;;;;;7.45;2.33;;;2.60;65.50;;;;;;5094265;28;20049;-74
2024/01/08 11:47:38;;;;;;;9.13;2.58;;;2.60;13.50;;;;;;5094653;28;20387;-73
2024/01/08 11:50:07;;;;;;;6.80;2.55;;;2.80;99.90;;;;;;5094282;28;20433;-75
2024/01/08 11:52:36;;;;;;;9.70;2.47;;;2.80;13.40;;;;;;5094163;28;20024;-74
2024/01/08 11:55:04;;;;;;;5.47;2.53;;;2.90;1.00;;;;;;5094004;28;20059;-74
2024/01/08 11:57:30;;;;;;;9.20;3.00;;;3.10;1.00;;;;;;5107641;28;20030;-74
2024/01/08 11:59:56;;;;;;;6.00;2.53;;;3.30;1.00;;;;;;5114573;28;20012;-74
2024/01/08 12:02:25;;;;;;;8.65;3.00;;;3.40;1.00;;;;;;5119475;28;20020;-75
2024/01/08 12:04:51;;;;;;;7.63;2.53;;;3.40;99.90;;;;;;5118878;28;20041;-75
2024/01/08 12:07:17;;;;;;;6.93;2.78;;;3.20;99.90;;;;;;5099961;28;20529;-76
2024/01/08 12:09:43;;;;;;;7.18;2.92;;;3.00;1.00;;;;;;5095460;28;20031;-77
2024/01/08 12:12:09;;;;;;;8.18;3.03;;;2.90;1.00;;;;;;5095104;28;20028;-81
2024/01/08 12:14:36;;;;;;;7.47;2.60;;;2.80;70.60;;;;;;5093646;28;20020;-75
2024/01/08 12:17:03;;;;;;;8.25;2.22;;;2.70;46.80;;;;;;5098466;28;20053;-75
2024/01/08 12:19:50;;;;;;;9.05;2.63;;;2.60;99.80;;;;;;5093745;28;20024;-74
2024/01/08 12:22:19;;;;;;;7.20;2.35;;;2.60;99.90;;;;;;5094379;28;20475;-74
2024/01/08 12:24:48;;;;;;;9.88;3.15;;;2.50;99.90;;;;;;5093902;28;20344;-74
2024/01/08 12:27:19;;;;;;;11.93;3.72;;;2.40;99.90;;;;;;5094344;28;20490;-75
2024/01/08 12:29:46;;;;;;;6.18;2.60;;;2.40;1.00;;;;;;5094344;28;20418;-76
2024/01/08 12:32:19;;;;;;;7.90;3.05;;;2.60;1.00;;;;;;5094170;28;20107;-74
2024/01/08 12:34:45;;;;;;;5.72;2.63;;;2.40;1.00;;;;;;5093555;28;20038;-73
2024/01/08 12:37:12;;;;;;;8.07;3.05;;;2.40;1.00;;;;;;5093616;28;20111;-73
2024/01/08 12:39:38;;;;;;;6.68;2.83;;;2.40;1.00;;;;;;5093675;28;20535;-74
2024/01/08 12:42:07;;;;;;;9.57;2.92;;;2.40;1.00;;;;;;5093435;28;20059;-73
2024/01/08 12:44:33;;;;;;;9.77;3.60;;;2.40;1.00;;;;;;5093317;28;20069;-75
2024/01/08 12:47:01;;;;;;;6.15;2.92;;;2.40;1.00;;;;;;5093564;28;20422;-74
2024/01/08 12:49:27;;;;;;;10.80;3.45;;;2.30;1.00;;;;;;5094163;28;20020;-76